Time;durP1;ratioP1;P1;durP2;ratioP2;P2;SDS_P1;SDS_P2;PMS_P1;PMS_P2;Temp;Humidity;BMP_temperature;BMP_pressure;BME280_temperature;BME280_humidity;BME280_pressure;Samples;Min_cycle;Max_cycle;Signal;HPM_P1;HPM_P2
2023/03/12 00:00:34;;;;;;;68.95;10.98;;;;;;;;;;5051749;28;20205;-70
2023/03/12 00:03:01;;;;;;;67.43;10.60;;;;;;;;;;5051924;28;20206;-71
2023/03/12 00:05:30;;;;;;;71.40;10.95;;;;;;;;;;5052181;28;20577;-70
2023/03/12 00:07:58;;;;;;;66.30;10.07;;;;;;;;;;5051870;28;20217;-70
2023/03/12 00:10:25;;;;;;;66.88;10.18;;;;;;;;;;5051684;28;20213;-70
2023/03/12 00:12:53;;;;;;;68.43;11.35;;;;;;;;;;5051601;28;20688;-70
2023/03/12 00:15:20;;;;;;;68.90;12.18;;;;;;;;;;5051719;28;20202;-70
2023/03/12 00:17:47;;;;;;;69.07;11.10;;;;;;;;;;5051595;28;20686;-70
2023/03/12 00:20:14;;;;;;;69.45;10.48;;;;;;;;;;5051142;28;20207;-70
2023/03/12 00:22:43;;;;;;;68.07;10.98;;;;;;;;;;5051600;28;20223;-70
2023/03/12 00:25:12;;;;;;;68.18;11.20;;;;;;;;;;5051668;28;20464;-70
2023/03/12 00:27:40;;;;;;;65.75;9.88;;;;;;;;;;5051372;28;20235;-70
2023/03/12 00:30:07;;;;;;;69.03;11.23;;;;;;;;;;5051199;28;20227;-70
2023/03/12 00:32:35;;;;;;;66.13;10.77;;;;;;;;;;5051902;28;20682;-70
2023/03/12 00:35:02;;;;;;;66.95;11.07;;;;;;;;;;5051458;28;20204;-70
2023/03/12 00:37:31;;;;;;;65.35;10.70;;;;;;;;;;5051550;28;20255;-70
2023/03/12 00:40:00;;;;;;;70.15;10.90;;;;;;;;;;5051284;28;20261;-70
2023/03/12 00:42:27;;;;;;;69.15;10.65;;;;;;;;;;5051324;28;20244;-70
2023/03/12 00:44:54;;;;;;;64.50;9.32;;;;;;;;;;5051495;28;20808;-70
2023/03/12 00:47:22;;;;;;;66.80;10.52;;;;;;;;;;5051085;28;20241;-70
2023/03/12 00:49:49;;;;;;;67.03;9.57;;;;;;;;;;5053690;28;20208;-70
2023/03/12 00:52:16;;;;;;;67.85;9.73;;;;;;;;;;5055487;28;20199;-70
2023/03/12 00:54:43;;;;;;;65.90;10.02;;;;;;;;;;5055474;28;20808;-70
2023/03/12 00:57:11;;;;;;;68.35;10.18;;;-0.70;1.00;;;;;;5055185;28;20222;-70
2023/03/12 00:59:39;;;;;;;65.35;9.23;;;;;;;;;;5054925;28;20708;-70
2023/03/12 01:02:06;;;;;;;65.63;11.00;;;;;;;;;;5054888;28;20225;-70
2023/03/12 01:04:33;;;;;;;66.35;9.95;;;;;;;;;;5055270;28;20210;-70
2023/03/12 01:07:00;;;;;;;66.38;9.38;;;;;;;;;;5055118;28;20222;-70
2023/03/12 01:09:27;;;;;;;65.88;9.88;;;;;;;;;;5054604;28;20206;-70
2023/03/12 01:11:54;;;;;;;67.07;11.13;;;;;;;;;;5054903;28;20206;-70
2023/03/12 01:14:23;;;;;;;65.03;9.95;;;;;;;;;;5054806;28;20689;-70
2023/03/12 01:16:50;;;;;;;70.65;11.43;;;;;;;;;;5054979;28;20226;-70
2023/03/12 01:19:17;;;;;;;68.18;11.00;;;;;;;;;;5054663;28;20208;-70
2023/03/12 01:21:44;;;;;;;66.55;10.00;;;;;;;;;;5054711;28;20698;-70
2023/03/12 01:24:11;;;;;;;67.93;10.77;;;;;;;;;;5054736;28;20202;-70
2023/03/12 01:26:39;;;;;;;66.15;10.32;;;;;;;;;;5054527;28;20228;-70
2023/03/12 01:29:06;;;;;;;65.20;9.35;;;;;;;;;;5054297;28;20209;-70
2023/03/12 01:31:34;;;;;;;65.88;10.35;;;;;;;;;;5054943;28;20208;-70
2023/03/12 01:34:01;;;;;;;65.60;9.25;;;;;;;;;;5054468;28;20563;-70
2023/03/12 01:36:30;;;;;;;65.15;9.65;;;;;;;;;;5054630;28;20230;-70
2023/03/12 01:38:58;;;;;;;65.18;9.32;;;;;;;;;;5054234;28;20361;-70
2023/03/12 01:41:26;;;;;;;70.93;10.02;;;;;;;;;;5054295;28;20212;-70
2023/03/12 01:43:53;;;;;;;64.72;9.52;;;;;;;;;;5054607;28;20228;-70
2023/03/12 01:46:25;;;;;;;68.65;10.05;;;;;;;;;;5054293;28;20246;-70
2023/03/12 01:48:55;;;;;;;68.85;9.82;;;;;;;;;;5054049;28;20205;-70
2023/03/12 01:51:25;;;;;;;69.95;10.82;;;;;;;;;;5054145;28;20213;-70
2023/03/12 01:53:54;;;;;;;68.97;10.00;;;;;;;;;;5054139;28;20562;-70
2023/03/12 01:56:21;;;;;;;64.72;9.93;;;;;;;;;;5054295;28;20300;-70
2023/03/12 01:58:50;;;;;;;65.32;9.90;;;;;;;;;;5053911;28;20211;-70
2023/03/12 02:01:18;;;;;;;74.68;10.43;;;;;;;;;;5053519;28;20213;-70
2023/03/12 02:03:46;;;;;;;66.60;8.65;;;;;;;;;;5054509;28;20565;-70
2023/03/12 02:06:15;;;;;;;68.35;9.95;;;;;;;;;;5053917;28;20224;-69
2023/03/12 02:08:43;;;;;;;65.95;10.13;;;;;;;;;;5053420;28;20210;-69
2023/03/12 02:11:11;;;;;;;65.60;9.75;;;;;;;;;;5054112;28;20207;-70
2023/03/12 02:13:38;;;;;;;69.70;10.18;;;;;;;;;;5053766;28;20206;-70
2023/03/12 02:16:05;;;;;;;66.45;10.10;;;;;;;;;;5053874;28;20237;-70
2023/03/12 02:18:34;;;;;;;64.85;8.82;;;;;;;;;;5053644;28;20256;-70
2023/03/12 02:21:04;;;;;;;67.85;10.13;;;;;;;;;;5053553;28;20278;-69
2023/03/12 02:23:35;;;;;;;72.28;10.15;;;;;;;;;;5053765;28;20252;-70
2023/03/12 02:26:04;;;;;;;63.60;9.40;;;;;;;;;;5053535;28;20836;-70
2023/03/12 02:28:33;;;;;;;66.53;8.55;;;;;;;;;;5053256;28;20705;-70
2023/03/12 02:31:02;;;;;;;66.07;10.40;;;;;;;;;;5053508;28;20671;-70
2023/03/12 02:33:29;;;;;;;65.15;9.43;;;;;;;;;;5053355;28;20204;-70
2023/03/12 02:35:57;;;;;;;67.30;10.50;;;;;;;;;;5053595;28;20236;-70
2023/03/12 02:38:36;;;;;;;70.30;9.77;;;;;;;;;;5053260;28;20202;-70
2023/03/12 02:41:05;;;;;;;65.38;8.55;;;;;;;;;;5053313;28;20216;-70
2023/03/12 02:43:33;;;;;;;64.82;8.85;;;;;;;;;;5053152;28;20730;-70
2023/03/12 02:46:00;;;;;;;65.65;9.65;;;;;;;;;;5052959;28;20247;-70
2023/03/12 02:48:27;;;;;;;71.50;10.13;;;;;;;;;;5053304;28;20202;-70
2023/03/12 02:50:54;;;;;;;65.75;10.23;;;;;;;;;;5051485;28;20213;-70
2023/03/12 02:53:21;;;;;;;64.80;8.75;;;;;;;;;;5052942;28;20692;-70
2023/03/12 02:55:48;;;;;;;65.53;8.95;;;;;;;;;;5053186;28;20230;-70
2023/03/12 02:58:17;;;;;;;65.82;9.82;;;;;;;;;;5052878;28;20220;-70
2023/03/12 03:00:44;;;;;;;70.85;9.98;;;;;;;;;;5052868;28;20207;-70
2023/03/12 03:03:11;;;;;;;64.53;8.18;;;;;;;;;;5052545;28;20706;-70
2023/03/12 03:05:38;;;;;;;68.95;9.75;;;;;;;;;;5052762;28;20205;-70
2023/03/12 03:08:05;;;;;;;65.07;10.00;;;;;;;;;;5052477;28;20201;-70
2023/03/12 03:10:33;;;;;;;63.75;9.70;;;;;;;;;;5052531;28;20212;-70
2023/03/12 03:13:00;;;;;;;64.38;8.90;;;;;;;;;;5051995;28;20221;-70
2023/03/12 03:15:28;;;;;;;67.78;9.30;;;;;;;;;;5052587;28;20207;-70
2023/03/12 03:17:55;;;;;;;66.88;10.30;;;;;;;;;;5052558;28;20209;-70
2023/03/12 03:20:24;;;;;;;66.22;9.35;;;;;;;;;;5052257;28;20207;-70
2023/03/12 03:22:51;;;;;;;65.28;9.25;;;;;;;;;;5052619;28;20260;-70
2023/03/12 03:25:21;;;;;;;64.57;8.95;;;;;;;;;;5052620;28;20207;-74
2023/03/12 03:27:48;;;;;;;64.88;9.18;;;;;;;;;;5052578;28;20206;-71
2023/03/12 03:30:16;;;;;;;63.42;7.97;;;;;;;;;;5052111;28;20213;-71
2023/03/12 03:32:45;;;;;;;66.85;8.70;;;;;;;;;;5052624;28;20202;-70
2023/03/12 03:35:12;;;;;;;66.50;8.25;;;;;;;;;;5052104;28;20682;-70
2023/03/12 03:37:39;;;;;;;66.35;9.50;;;;;;;;;;5052397;28;20237;-70
2023/03/12 03:40:10;;;;;;;64.90;9.20;;;;;;;;;;5052361;28;20208;-70
2023/03/12 03:42:37;;;;;;;63.95;8.57;;;;;;;;;;5052249;28;20226;-70
2023/03/12 03:45:05;;;;;;;65.15;8.77;;;;;;;;;;5052199;28;20228;-70
2023/03/12 03:47:32;;;;;;;67.40;9.48;;;;;;;;;;5051868;28;20228;-70
2023/03/12 03:50:01;;;;;;;65.65;9.00;;;;;;;;;;5051680;28;20210;-70
2023/03/12 03:52:28;;;;;;;65.38;8.35;;;;;;;;;;5052049;28;20202;-70
2023/03/12 03:54:55;;;;;;;65.45;9.10;;;;;;;;;;5052057;28;20623;-70
2023/03/12 03:57:23;;;;;;;62.80;8.63;;;;;;;;;;5052032;28;20230;-70
2023/03/12 03:59:50;;;;;;;64.72;8.93;;;;;;;;;;5051613;28;20256;-70
2023/03/12 04:02:17;;;;;;;65.82;9.00;;;;;;;;;;5051737;28;20234;-70
2023/03/12 04:04:44;;;;;;;65.00;7.90;;;;;;;;;;5052022;28;20235;-71
2023/03/12 04:07:13;;;;;;;70.07;9.13;;;;;;;;;;5051850;28;20230;-70
2023/03/12 04:09:40;;;;;;;65.32;9.10;;;;;;;;;;5051530;28;20610;-70
2023/03/12 04:12:07;;;;;;;62.83;8.20;;;;;;;;;;5051682;28;20214;-70
2023/03/12 04:14:34;;;;;;;65.03;8.10;;;;;;;;;;5051689;28;20210;-70
2023/03/12 04:17:02;;;;;;;63.95;7.95;;;;;;;;;;5051559;28;20229;-70
2023/03/12 04:19:29;;;;;;;63.75;8.55;;;;;;;;;;5051231;28;20210;-70
2023/03/12 04:21:56;;;;;;;66.93;8.15;;;;;;;;;;5051646;28;20206;-70
2023/03/12 04:24:24;;;;;;;65.13;7.88;;;;;;;;;;5051374;28;20234;-70
2023/03/12 04:26:51;;;;;;;67.90;8.55;;;;;;;;;;5051556;28;20229;-70
2023/03/12 04:29:18;;;;;;;64.40;7.40;;;;;;;;;;5051049;28;20217;-70
2023/03/12 04:31:45;;;;;;;67.03;8.27;;;;;;;;;;5051458;28;20207;-70
2023/03/12 04:34:13;;;;;;;63.08;7.55;;;;;;;;;;5051688;28;20204;-70
2023/03/12 04:36:40;;;;;;;65.68;7.13;;;;;;;;;;5051514;28;20228;-70
2023/03/12 04:39:07;;;;;;;63.95;7.47;;;;;;;;;;5051303;28;20208;-70
2023/03/12 04:41:36;;;;;;;69.13;9.23;;;;;;;;;;5051600;28;20587;-70
2023/03/12 04:44:03;;;;;;;64.20;7.13;;;;;;;;;;5051198;28;20234;-70
2023/03/12 04:46:30;;;;;;;62.72;7.65;;;;;;;;;;5051413;28;20745;-70
2023/03/12 04:49:01;;;;;;;64.78;7.70;;;;;;;;;;5051201;28;20214;-70
2023/03/12 04:51:28;;;;;;;64.63;7.38;;;;;;;;;;5051565;28;20213;-70
2023/03/12 04:53:55;;;;;;;63.95;8.48;;;;;;;;;;5051308;28;20210;-70
2023/03/12 04:56:22;;;;;;;63.97;7.60;;;;;;;;;;5051214;28;20253;-70
2023/03/12 04:58:51;;;;;;;63.72;7.40;;;;;;;;;;5051128;28;20215;-70
2023/03/12 05:01:22;;;;;;;63.97;7.85;;;;;;;;;;5051378;28;20208;-70
2023/03/12 05:03:49;;;;;;;63.13;8.25;;;;;;;;;;5051367;28;20236;-70
2023/03/12 05:06:16;;;;;;;66.43;7.70;;;;;;;;;;5051126;28;20239;-70
2023/03/12 05:08:44;;;;;;;63.30;7.30;;;;;;;;;;5050810;28;20274;-70
2023/03/12 05:11:11;;;;;;;62.17;7.35;;;;;;;;;;5051390;28;20234;-70
2023/03/12 05:13:38;;;;;;;62.80;7.75;;;;;;;;;;5051303;28;20205;-70
2023/03/12 05:16:07;;;;;;;62.90;7.78;;;;;;;;;;5051247;28;20595;-70
2023/03/12 05:18:34;;;;;;;72.28;8.45;;;;;;;;;;5050743;28;20211;-70
2023/03/12 05:21:01;;;;;;;63.65;7.68;;;;;;;;;;5051037;28;20215;-70
2023/03/12 05:23:29;;;;;;;63.08;6.88;;;;;;;;;;5050937;28;20235;-70
2023/03/12 05:25:56;;;;;;;64.15;6.60;;;;;;;;;;5051216;28;20730;-70
2023/03/12 05:28:26;;;;;;;63.92;7.15;;;;;;;;;;5051095;28;20220;-70
2023/03/12 05:30:53;;;;;;;63.97;7.30;;;;;;;;;;5050918;28;20260;-70
2023/03/12 05:33:22;;;;;;;62.50;8.10;;;;;;;;;;5050954;28;20689;-70
2023/03/12 05:35:49;;;;;;;60.75;7.13;;;;;;;;;;5052925;28;20229;-70
2023/03/12 05:38:16;;;;;;;62.60;7.45;;;;;;;;;;5054655;28;20209;-70
2023/03/12 05:40:43;;;;;;;62.97;7.25;;;;;;;;;;5054424;28;20217;-70
2023/03/12 05:43:10;;;;;;;62.90;7.22;;;;;;;;;;5054443;28;20232;-70
2023/03/12 05:45:37;;;;;;;64.15;7.47;;;;;;;;;;5054258;28;20588;-70
2023/03/12 05:48:06;;;;;;;62.80;7.07;;;;;;;;;;5054286;28;20633;-70
2023/03/12 05:50:34;;;;;;;67.28;8.35;;;;;;;;;;5054063;28;20700;-70
2023/03/12 05:53:01;;;;;;;67.18;7.70;;;;;;;;;;5054228;28;20211;-70
2023/03/12 05:55:28;;;;;;;63.97;8.13;;;;;;;;;;5054228;28;20678;-70
2023/03/12 05:57:56;;;;;;;61.92;6.38;;;;;;;;;;5054226;28;20208;-70
2023/03/12 06:00:23;;;;;;;63.00;7.00;;;;;;;;;;5053903;28;20204;-70
2023/03/12 06:02:51;;;;;;;63.30;7.43;;;;;;;;;;5053997;28;20248;-70
2023/03/12 06:05:18;;;;;;;64.85;7.35;;;;;;;;;;5053871;28;20210;-70
2023/03/12 06:07:46;;;;;;;61.20;6.13;;;;;;;;;;5054201;28;20574;-70
2023/03/12 06:10:13;;;;;;;65.07;8.00;;;;;;;;;;5053745;28;20212;-70
2023/03/12 06:12:41;;;;;;;62.10;6.45;;;;;;;;;;5054013;28;20579;-70
2023/03/12 06:15:08;;;;;;;64.68;7.95;;;;;;;;;;5054024;28;20303;-70
2023/03/12 06:17:35;;;;;;;61.38;6.57;;;;;;;;;;5053694;28;20231;-70
2023/03/12 06:20:02;;;;;;;63.47;7.25;;;;;;;;;;5053592;28;20206;-70
2023/03/12 06:22:30;;;;;;;63.08;7.10;;;;;;;;;;5053955;28;20205;-70
2023/03/12 06:24:58;;;;;;;66.07;6.93;;;;;;;;;;5054084;28;20633;-70
2023/03/12 06:27:25;;;;;;;64.00;6.70;;;;;;;;;;5053824;28;20309;-70
2023/03/12 06:29:52;;;;;;;62.13;7.03;;;;;;;;;;5054698;28;20673;-70
2023/03/12 06:32:19;;;;;;;61.20;7.00;;;;;;;;;;5053594;28;20209;-70
2023/03/12 06:34:47;;;;;;;64.55;7.68;;;;;;;;;;5053485;28;20216;-70
2023/03/12 06:37:14;;;;;;;62.08;6.60;;;;;;;;;;5053747;28;20231;-70
2023/03/12 06:39:41;;;;;;;64.35;7.85;;;;;;;;;;5053243;28;20209;-70
2023/03/12 06:42:11;;;;;;;63.70;7.65;;;;;;;;;;5053481;28;20216;-70
2023/03/12 06:44:38;;;;;;;64.20;7.43;;;;;;;;;;5053213;28;20228;-70
2023/03/12 06:47:06;;;;;;;63.75;7.32;;;;;;;;;;5053174;28;20233;-70
2023/03/12 06:49:34;;;;;;;63.25;7.20;;;;;;;;;;5053106;28;20581;-70
2023/03/12 06:52:01;;;;;;;63.45;7.53;;;;;;;;;;5053307;28;20206;-70
2023/03/12 06:54:28;;;;;;;62.92;7.72;;;;;;;;;;5053190;28;20200;-70
2023/03/12 06:56:55;;;;;;;65.53;7.35;;;;;;;;;;5053060;28;20224;-70
2023/03/12 06:59:24;;;;;;;60.33;5.80;;;;;;;;;;5052692;28;20206;-70
2023/03/12 07:01:51;;;;;;;64.13;7.05;;;;;;;;;;5053151;28;20212;-70
2023/03/12 07:04:18;;;;;;;63.53;7.32;;;;;;;;;;5052953;28;20601;-70
2023/03/12 07:06:49;;;;;;;62.10;6.82;;;;;;;;;;5052883;28;20233;-72
2023/03/12 07:09:16;;;;;;;63.78;7.25;;;;;;;;;;5052430;28;20233;-70
2023/03/12 07:11:44;;;;;;;63.55;7.30;;;;;;;;;;5052654;28;20270;-70
2023/03/12 07:14:11;;;;;;;61.75;6.45;;;;;;;;;;5052704;28;20577;-71
2023/03/12 07:16:40;;;;;;;62.35;7.43;;;;;;;;;;5052735;28;20229;-70
2023/03/12 07:19:07;;;;;;;62.55;7.70;;;;;;;;;;5052340;28;20207;-70
2023/03/12 07:21:34;;;;;;;64.32;7.78;;;;;;;;;;5052467;28;20220;-70
2023/03/12 07:24:05;;;;;;;64.65;8.60;;;;;;;;;;5052595;28;20688;-70
2023/03/12 07:26:32;;;;;;;63.03;7.05;;;;;;;;;;5052775;28;20583;-70
2023/03/12 07:29:00;;;;;;;63.20;7.63;;;;;;;;;;5052255;28;20205;-70
2023/03/12 07:31:27;;;;;;;64.32;7.97;;;;;;;;;;5052474;28;20214;-70
2023/03/12 07:33:55;;;;;;;63.95;7.72;;;;;;;;;;5052555;28;20216;-70
2023/03/12 07:36:22;;;;;;;64.38;7.53;;;;;;;;;;5052368;28;20698;-70
2023/03/12 07:38:49;;;;;;;63.35;7.47;;;;;;;;;;5050730;28;20244;-70
2023/03/12 07:41:17;;;;;;;66.00;7.90;;;;;;;;;;5052426;28;20209;-70
2023/03/12 07:43:44;;;;;;;65.45;8.50;;;;;;;;;;5052129;28;20773;-70
2023/03/12 07:46:11;;;;;;;62.72;7.80;;;;;;;;;;5052056;28;20244;-70
2023/03/12 07:48:38;;;;;;;64.13;8.93;;;;;;;;;;5051921;28;20208;-69
2023/03/12 07:51:07;;;;;;;65.35;8.77;;;;;;;;;;5052187;28;20202;-69
2023/03/12 07:53:34;;;;;;;63.78;9.23;;;;;;;;;;5052233;28;20204;-69
2023/03/12 07:56:01;;;;;;;64.93;8.70;;;;;;;;;;5052141;28;20597;-69
2023/03/12 07:58:28;;;;;;;64.25;8.48;;;;;;;;;;5051581;28;20208;-69
2023/03/12 08:00:56;;;;;;;64.25;8.35;;;;;;;;;;5051711;28;20206;-69
2023/03/12 08:03:23;;;;;;;63.80;8.20;;;;;;;;;;5051891;28;20296;-69
2023/03/12 08:05:57;;;;;;;64.25;7.78;;;;;;;;;;5051927;28;20506;-69
2023/03/12 08:08:25;;;;;;;62.63;7.45;;;;;;;;;;5051722;28;20245;-70
2023/03/12 08:10:53;;;;;;;68.13;10.63;;;;;;;;;;5051787;28;20584;-70
2023/03/12 08:13:21;;;;;;;70.55;8.63;;;;;;;;;;5051924;28;20205;-69
2023/03/12 08:15:49;;;;;;;65.40;7.93;;;;;;;;;;5051842;28;20222;-70
2023/03/12 08:18:16;;;;;;;63.35;8.68;;;;;;;;;;5051566;28;20207;-70
2023/03/12 08:20:43;;;;;;;67.38;9.75;;;;;;;;;;5051963;28;20216;-70
2023/03/12 08:23:10;;;;;;;65.75;8.75;;;;;;;;;;5051533;28;20244;-70
2023/03/12 08:25:39;;;;;;;63.28;8.15;;;;;;;;;;5051692;28;20234;-70
2023/03/12 08:28:06;;;;;;;64.68;9.57;;;;;;;;;;5051662;28;20566;-70
2023/03/12 08:30:33;;;;;;;67.63;9.73;;;;;;;;;;5051474;28;20213;-70
2023/03/12 08:33:00;;;;;;;65.00;9.00;;;;;;;;;;5051835;28;20692;-70
2023/03/12 08:35:28;;;;;;;66.65;9.40;;;;;;;;;;5051995;28;20198;-70
2023/03/12 08:37:55;;;;;;;63.47;8.27;;;;;;;;;;5051620;28;20233;-70
2023/03/12 08:40:22;;;;;;;66.30;9.40;;;;;;;;;;5051428;28;20209;-70
2023/03/12 08:42:51;;;;;;;65.55;9.45;;;;;;;;;;5051565;28;20323;-70
2023/03/12 08:45:18;;;;;;;66.45;9.52;;;;;;;;;;5051184;28;20230;-70
2023/03/12 08:47:45;;;;;;;68.45;10.13;;;;;;;;;;5051348;28;20312;-70
2023/03/12 08:50:13;;;;;;;65.13;9.48;;;;;;;;;;5051333;28;20231;-70
2023/03/12 08:52:40;;;;;;;64.30;8.65;;;;;;;;;;5051651;28;20202;-70
2023/03/12 08:55:08;;;;;;;64.63;9.60;;;;;;;;;;5051431;28;20208;-70
2023/03/12 08:57:35;;;;;;;64.18;9.07;;;;;;;;;;5051354;28;20222;-70
2023/03/12 09:00:07;;;;;;;67.93;11.10;;;;;;;;;;5050781;28;20647;-70
2023/03/12 09:02:37;;;;;;;68.55;9.63;;;;;;;;;;5051647;28;20616;-70
2023/03/12 09:05:04;;;;;;;63.45;8.45;;;;;;;;;;5051200;28;20225;-70
2023/03/12 09:07:31;;;;;;;66.22;9.32;;;;;;;;;;5051206;28;20234;-70
2023/03/12 09:09:58;;;;;;;65.40;9.02;;;;;;;;;;5051997;28;20210;-70
2023/03/12 09:12:25;;;;;;;66.03;9.40;;;;;;;;;;5055033;28;20692;-70
2023/03/12 09:14:53;;;;;;;64.38;9.80;;;;;;;;;;5055168;28;20202;-70
2023/03/12 09:17:21;;;;;;;72.85;10.40;;;;;;;;;;5055309;28;20248;-70
2023/03/12 09:19:48;;;;;;;66.53;10.88;;;;;;;;;;5054829;28;20212;-70
2023/03/12 09:22:16;;;;;;;67.43;9.60;;;;;;;;;;5055053;28;20202;-70
2023/03/12 09:24:43;;;;;;;64.85;9.52;;;;;;;;;;5055043;28;20222;-70
2023/03/12 09:27:10;;;;;;;68.18;10.73;;;;;;;;;;5054710;28;20601;-70
2023/03/12 09:29:37;;;;;;;74.95;11.13;;;;;;;;;;5054573;28;20210;-70
2023/03/12 09:32:04;;;;;;;64.25;9.63;;;;;;;;;;5054991;28;20202;-70
2023/03/12 09:34:33;;;;;;;67.18;11.05;;;;;;;;;;5054735;28;20198;-70
2023/03/12 09:37:00;;;;;;;67.80;10.82;;;;;;;;;;5054543;28;20228;-70
2023/03/12 09:39:27;;;;;;;66.72;10.48;;;;;;;;;;5054225;28;20206;-70
2023/03/12 09:41:54;;;;;;;67.72;10.70;;;;;;;;;;5054527;28;20670;-71
2023/03/12 09:44:27;;;;;;;67.72;10.93;;;;;;;;;;5054603;28;20232;-70
2023/03/12 09:46:56;;;;;;;68.03;11.27;;;;;;;;;;5054377;28;20591;-70
2023/03/12 09:49:27;;;;;;;66.53;10.13;;;;;;;;;;5054054;28;20225;-70
2023/03/12 09:51:57;;;;;;;66.82;10.13;;;;;;;;;;5054386;28;20216;-70
2023/03/12 09:54:26;;;;;;;66.90;10.07;;;;;;;;;;5054232;28;20206;-70
2023/03/12 09:56:56;;;;;;;64.82;9.20;;;;;;;;;;5054082;28;20725;-70
2023/03/12 09:59:23;;;;;;;63.72;8.82;;;;;;;;;;5053913;28;20209;-70
2023/03/12 10:01:53;;;;;;;66.47;9.80;;;;;;;;;;5054307;28;20205;-70
2023/03/12 10:04:24;;;;;;;64.03;8.97;;;;;;;;;;5054122;28;20232;-70
2023/03/12 10:06:53;;;;;;;68.03;10.60;;;;;;;;;;5053850;28;20475;-70
2023/03/12 10:09:29;;;;;;;65.10;9.03;;;;;;;;;;5053832;28;20444;-70
2023/03/12 10:11:59;;;;;;;63.07;9.57;;;;;;;;;;5054100;28;20450;-70
2023/03/12 10:14:33;;;;;;;64.00;8.73;;;;;;;;;;5054069;28;20471;-70
2023/03/12 10:17:07;;;;;;;64.40;9.13;;;;;;;;;;5053856;28;20475;-70
2023/03/12 10:19:52;;;;;;;63.90;9.13;;;;;;;;;;5053609;28;20458;-70
2023/03/12 10:22:25;;;;;;;65.33;8.70;;;;;;;;;;5053587;28;20444;-70
2023/03/12 10:24:57;;;;;;;63.00;7.97;;;;;;;;;;5053735;28;20490;-70
2023/03/12 10:27:26;;;;;;;61.67;7.57;;;;;;;;;;5053658;28;20472;-70
2023/03/12 10:29:54;;;;;;;64.30;8.57;;;;;;;;;;5053185;28;20459;-70
2023/03/12 10:32:22;;;;;;;68.17;8.43;;;;;;;;;;5053749;28;20459;-71
2023/03/12 10:34:51;;;;;;;64.17;7.77;;;;;;;;;;5053505;28;20941;-70
2023/03/12 10:37:21;;;;;;;63.63;8.30;;;;;;;;;;5053500;28;20774;-70
2023/03/12 10:39:48;;;;;;;62.70;7.93;;;;;;;;;;5053202;28;20452;-70
2023/03/12 10:42:19;;;;;;;64.07;7.40;;;;;;;;;;5053249;28;20455;-70
2023/03/12 10:44:47;;;;;;;63.37;7.50;;;;;;;;;;5053464;28;20484;-70
2023/03/12 10:47:22;;;;;;;61.77;7.47;;;;;;;;;;5053076;28;20480;-71
2023/03/12 10:49:51;;;;;;;61.37;7.00;;;;;;;;;;5052963;28;20940;-70
2023/03/12 10:52:19;;;;;;;62.27;6.60;;;;;;;;;;5053279;28;20929;-70
2023/03/12 10:54:47;;;;;;;61.07;6.50;;;;;;;;;;5053065;28;20936;-70
2023/03/12 10:57:15;;;;;;;66.70;7.33;;;;;;;;;;5053203;28;20465;-70
2023/03/12 10:59:44;;;;;;;61.53;6.53;;;;;;;;;;5052771;28;20459;-70
2023/03/12 11:02:28;;;;;;;62.13;6.93;;;;;;;;;;5052938;28;20458;-71
2023/03/12 11:04:56;;;;;;;61.50;5.70;;;;;;;;;;5052770;28;20495;-70
2023/03/12 11:07:25;;;;;;;61.83;6.60;;;;;;;;;;5053149;28;20460;-70
2023/03/12 11:10:19;;;;;;;62.30;6.20;;;;;;;;;;5052782;28;20459;-71
2023/03/12 11:12:54;;;;;;;61.27;6.30;;;;;;;;;;4994966;28;20535;-70
2023/03/12 11:15:24;;;;;;;64.00;6.07;;;;;;;;;;5052654;28;20436;-70
2023/03/12 11:17:52;;;;;;;61.33;6.40;;;;;;;;;;5052620;28;20451;-70
2023/03/12 11:20:25;;;;;;;65.30;6.00;;;;;;;;;;5052561;28;20834;-70
2023/03/12 11:22:52;;;;;;;62.00;7.00;;;;;;;;;;5052700;28;20444;-70
2023/03/12 11:25:23;;;;;;;62.07;7.27;;;;;;;;;;5052482;28;20488;-70
2023/03/12 11:27:53;;;;;;;60.67;6.40;;;;;;;;;;5052551;28;20452;-70
2023/03/12 11:30:22;;;;;;;61.50;5.80;;;;;;;;;;5052108;28;20448;-70
2023/03/12 11:32:51;;;;;;;61.90;5.83;;;;;;;;;;5051927;28;20817;-70
2023/03/12 11:35:21;;;;;;;62.37;5.40;;;;;;;;;;5052566;28;20548;-71
2023/03/12 11:37:57;;;;;;;59.33;4.63;;;;;;;;;;5052858;28;20456;-71
2023/03/12 11:40:40;;;;;;;60.10;4.20;;;;;;;;;;5051906;28;20455;-71
2023/03/12 11:43:20;;;;;;;59.70;4.20;;;;;;;;;;5052423;28;20444;-71
2023/03/12 11:45:50;;;;;;;61.70;4.67;;;;;;;;;;5052397;28;20494;-71
2023/03/12 11:48:23;;;;;;;60.67;4.50;;;;;;;;;;5052044;28;20451;-72
2023/03/12 11:50:57;;;;;;;58.30;3.60;;;;;;;;;;5051934;28;20456;-72
2023/03/12 11:53:33;;;;;;;58.63;3.70;;;;;;;;;;5052110;28;20462;-71
2023/03/12 11:56:04;;;;;;;60.50;4.00;;;;;;;;;;5052168;28;20472;-71
2023/03/12 11:58:40;;;;;;;59.37;3.60;;;;;;;;;;5052477;28;20444;-71
2023/03/12 12:01:10;;;;;;;58.00;2.93;;;;;;;;;;5052029;28;20460;-71
2023/03/12 12:03:58;;;;;;;58.97;3.70;;;;;;;;;;5052422;28;20448;-71
2023/03/12 12:06:30;;;;;;;58.30;3.40;;;;;;;;;;5044105;28;20497;-71
2023/03/12 12:09:04;;;;;;;58.80;3.37;;;;;;;;;;5051734;28;20452;-71
2023/03/12 12:11:35;;;;;;;60.43;3.50;;;;;;;;;;5051876;28;20455;-71
2023/03/12 12:14:10;;;;;;;58.60;3.40;;;;;;;;;;5051740;28;20448;-71
2023/03/12 12:16:44;;;;;;;59.10;3.37;;;;;;;;;;5051827;28;20708;-71
2023/03/12 12:19:20;;;;;;;62.07;4.80;;;;;;;;;;5051509;28;20535;-71
2023/03/12 12:22:00;;;;;;;59.27;3.63;;;;;;;;;;5051698;28;20967;-71
2023/03/12 12:24:37;;;;;;;58.17;3.20;;;;;;;;;;5051518;28;20463;-71
2023/03/12 12:27:09;;;;;;;58.40;3.30;;;;;;;;;;5051621;28;21022;-71
2023/03/12 12:29:46;;;;;;;59.70;3.20;;;;;;;;;;5051466;28;20448;-71
2023/03/12 12:32:16;;;;;;;59.00;3.57;;;;;;;;;;5051822;28;20452;-71
2023/03/12 12:35:01;;;;;;;61.27;3.30;;;;;;;;;;5051431;28;20448;-71
2023/03/12 12:37:43;;;;;;;59.00;3.43;;;;;;;;;;5051846;28;20463;-71
2023/03/12 12:40:17;;;;;;;58.80;3.13;;;;;;;;;;5047700;28;20957;-71
2023/03/12 12:42:49;;;;;;;60.00;3.23;;;;;;;;;;5051499;28;20444;-71
2023/03/12 12:45:17;;;;;;;58.63;3.33;;;;;;;;;;5054517;28;20488;-71
2023/03/12 12:47:46;;;;;;;59.33;3.17;;;;;;;;;;5055520;28;20468;-71
2023/03/12 12:50:16;;;;;;;61.30;3.73;;;;;;;;;;5055337;28;20444;-71
2023/03/12 12:52:43;;;;;;;58.10;3.37;;;;;;;;;;5055501;28;20448;-71
2023/03/12 12:55:16;;;;;;;59.10;3.87;;;;;;;;;;5055392;28;20448;-71
2023/03/12 12:57:45;;;;;;;58.97;3.50;;;;;;;;;;5055164;28;20472;-71
2023/03/12 13:00:23;;;;;;;59.73;3.70;;;;;;;;;;5055101;28;20451;-71
2023/03/12 13:02:51;;;;;;;59.50;3.40;;;;;;;;;;5055330;28;20475;-71
2023/03/12 13:05:19;;;;;;;60.87;3.53;;;;;;;;;;5055405;28;20908;-71
2023/03/12 13:07:46;;;;;;;61.83;3.50;;;;;;;;;;5055058;28;20464;-71
2023/03/12 13:10:28;;;;;;;59.20;3.43;;;;;;;;;;5054977;28;20458;-71
2023/03/12 13:12:57;;;;;;;58.63;3.00;;;;;;;;;;5054321;28;20474;-71
2023/03/12 13:15:38;;;;;;;59.80;2.87;;;;;;;;;;5054991;28;20440;-71
2023/03/12 13:18:08;;;;;;;60.27;3.00;;;;;;;;;;5054940;28;20448;-71
2023/03/12 13:20:40;;;;;;;60.50;3.00;;;;;;;;;;5054505;28;20443;-71
2023/03/12 13:23:20;;;;;;;58.53;2.97;;;;;;;;;;5054934;28;20451;-71
2023/03/12 13:25:52;;;;;;;61.77;3.67;;;;;;;;;;5054800;28;20487;-71
2023/03/12 13:28:34;;;;;;;60.00;3.53;;;;;;;;;;5054766;28;20447;-71
2023/03/12 13:31:01;;;;;;;59.60;3.50;;;;;;;;;;5054722;28;20451;-70
2023/03/12 13:33:37;;;;;;;61.13;3.60;;;;;;;;;;5054981;28;20444;-71
2023/03/12 13:36:06;;;;;;;60.73;3.60;;;;;;;;;;5054681;28;20460;-71
2023/03/12 13:38:38;;;;;;;59.27;3.10;;;;;;;;;;5054500;28;20452;-71
2023/03/12 13:41:07;;;;;;;60.80;3.47;;;;;;;;;;5054621;28;20448;-71
2023/03/12 13:43:49;;;;;;;59.20;3.63;;;;;;;;;;5054429;28;20458;-71
2023/03/12 13:46:37;;;;;;;61.80;4.00;;;;;;;;;;5051515;28;20545;-72
2023/03/12 13:49:06;;;;;;;59.50;3.60;;;;;;;;;;5046498;28;20483;-70
2023/03/12 13:51:43;;;;;;;59.93;3.70;;;;;;;;;;5054354;28;20440;-70
2023/03/12 13:54:16;;;;;;;61.33;3.67;;;;;;;;;;5054457;28;20566;-72
2023/03/12 13:56:47;;;;;;;61.70;4.10;;;;;;;;;;5053538;28;20968;-71
2023/03/12 13:59:17;;;;;;;60.77;4.20;;;;;;;;;;5053959;28;20453;-71
2023/03/12 14:01:47;;;;;;;60.87;3.50;;;;;;;;;;5054255;28;20448;-70
2023/03/12 14:04:18;;;;;;;61.90;3.83;;;;;;;;;;5053909;28;20582;-70
2023/03/12 14:06:54;;;;;;;59.97;3.80;;;;;;;;;;5053945;28;20484;-70
2023/03/12 14:09:23;;;;;;;61.10;3.63;;;;;;;;;;5053812;28;20597;-69
2023/03/12 14:11:56;;;;;;;60.03;3.80;;;;;;;;;;5053970;28;20456;-71
2023/03/12 14:14:31;;;;;;;60.80;3.63;;;;;;;;;;5053967;28;20458;-71
2023/03/12 14:16:58;;;;;;;60.80;4.23;;;;;;;;;;5053955;28;20627;-71
2023/03/12 14:19:28;;;;;;;63.20;3.93;;;;;;;;;;5053668;28;20464;-71
2023/03/12 14:21:57;;;;;;;65.00;4.50;;;;;;;;;;5053960;28;20926;-71
2023/03/12 14:24:25;;;;;;;63.77;3.80;;;;;;;;;;5053905;28;20455;-72
2023/03/12 14:26:53;;;;;;;64.27;4.37;;;;;;;;;;5053677;28;21004;-71
2023/03/12 14:29:21;;;;;;;61.37;4.47;;;;;;;;;;5053328;28;20480;-72
2023/03/12 14:31:48;;;;;;;60.37;3.53;;;;;;;;;;5053855;28;20471;-71
2023/03/12 14:34:19;;;;;;;60.17;3.57;;;;;;;;;;5053783;28;20456;-71
2023/03/12 14:36:50;;;;;;;63.07;4.13;;;;;;;;;;5053684;28;20468;-71
2023/03/12 14:39:24;;;;;;;60.27;3.43;;;;;;;;;;5053332;28;20448;-71